sensor_id;sensor_type;location;lat;lon;timestamp;temperature;humidity
36132;DHT22;22185;48.738;9.324;2022-09-29T00:01:41;7.80;99.90
36132;DHT22;22185;48.738;9.324;2022-09-29T00:03:43;7.90;99.90
36132;DHT22;22185;48.738;9.324;2022-09-29T00:05:54;7.90;99.90
36132;DHT22;22185;48.738;9.324;2022-09-29T00:07:56;7.90;99.90
36132;DHT22;22185;48.738;9.324;2022-09-29T00:09:57;7.90;99.90
36132;DHT22;22185;48.738;9.324;2022-09-29T00:11:59;7.90;99.90
36132;DHT22;22185;48.738;9.324;2022-09-29T00:14:01;8.00;99.90
36132;DHT22;22185;48.738;9.324;2022-09-29T00:16:03;7.90;99.90
36132;DHT22;22185;48.738;9.324;2022-09-29T00:18:05;8.00;99.90
36132;DHT22;22185;48.738;9.324;2022-09-29T00:20:15;8.00;99.90
36132;DHT22;22185;48.738;9.324;2022-09-29T00:22:16;7.90;99.90
36132;DHT22;22185;48.738;9.324;2022-09-29T00:24:18;7.90;99.90
36132;DHT22;22185;48.738;9.324;2022-09-29T00:26:21;7.90;99.90
36132;DHT22;22185;48.738;9.324;2022-09-29T00:28:22;7.90;99.90
36132;DHT22;22185;48.738;9.324;2022-09-29T00:30:24;7.90;99.90
36132;DHT22;22185;48.738;9.324;2022-09-29T00:32:26;8.00;99.90
36132;DHT22;22185;48.738;9.324;2022-09-29T00:34:27;8.00;99.90
36132;DHT22;22185;48.738;9.324;2022-09-29T00:36:29;8.00;99.90
36132;DHT22;22185;48.738;9.324;2022-09-29T00:38:31;7.90;99.90
36132;DHT22;22185;48.738;9.324;2022-09-29T00:40:33;8.00;99.90
36132;DHT22;22185;48.738;9.324;2022-09-29T00:42:35;7.90;99.90
36132;DHT22;22185;48.738;9.324;2022-09-29T00:46:58;8.00;99.90
36132;DHT22;22185;48.738;9.324;2022-09-29T00:49:03;7.90;99.90
36132;DHT22;22185;48.738;9.324;2022-09-29T00:51:06;8.00;99.90
36132;DHT22;22185;48.738;9.324;2022-09-29T00:53:08;8.00;99.90
36132;DHT22;22185;48.738;9.324;2022-09-29T00:55:33;7.90;99.90
36132;DHT22;22185;48.738;9.324;2022-09-29T00:57:38;8.00;99.90
36132;DHT22;22185;48.738;9.324;2022-09-29T00:59:44;8.10;99.90
36132;DHT22;22185;48.738;9.324;2022-09-29T01:01:47;8.00;99.90
36132;DHT22;22185;48.738;9.324;2022-09-29T01:03:49;7.90;99.90
36132;DHT22;22185;48.738;9.324;2022-09-29T01:05:54;7.90;99.90
36132;DHT22;22185;48.738;9.324;2022-09-29T01:07:59;7.90;99.90
36132;DHT22;22185;48.738;9.324;2022-09-29T01:10:02;7.90;99.90
36132;DHT22;22185;48.738;9.324;2022-09-29T01:12:04;7.90;99.90
36132;DHT22;22185;48.738;9.324;2022-09-29T01:14:06;7.90;99.90
36132;DHT22;22185;48.738;9.324;2022-09-29T01:16:09;7.90;99.90
36132;DHT22;22185;48.738;9.324;2022-09-29T01:18:10;8.00;99.90
36132;DHT22;22185;48.738;9.324;2022-09-29T01:20:13;8.00;99.90
36132;DHT22;22185;48.738;9.324;2022-09-29T01:40:05;8.00;99.90
36132;DHT22;22185;48.738;9.324;2022-09-29T01:42:20;8.00;99.90
36132;DHT22;22185;48.738;9.324;2022-09-29T01:44:28;8.00;99.90
36132;DHT22;22185;48.738;9.324;2022-09-29T01:46:34;8.00;99.90
36132;DHT22;22185;48.738;9.324;2022-09-29T01:48:38;8.00;99.90
36132;DHT22;22185;48.738;9.324;2022-09-29T01:50:42;8.00;99.90
36132;DHT22;22185;48.738;9.324;2022-09-29T01:52:45;8.00;99.90
36132;DHT22;22185;48.738;9.324;2022-09-29T01:54:58;8.10;99.90
36132;DHT22;22185;48.738;9.324;2022-09-29T01:57:02;8.10;99.90
36132;DHT22;22185;48.738;9.324;2022-09-29T02:01:14;8.10;99.90
36132;DHT22;22185;48.738;9.324;2022-09-29T02:03:21;8.10;99.90
36132;DHT22;22185;48.738;9.324;2022-09-29T02:07:35;8.20;99.90
36132;DHT22;22185;48.738;9.324;2022-09-29T02:09:38;8.20;99.90
36132;DHT22;22185;48.738;9.324;2022-09-29T02:11:40;8.20;99.90
36132;DHT22;22185;48.738;9.324;2022-09-29T02:13:48;8.30;99.90
36132;DHT22;22185;48.738;9.324;2022-09-29T02:15:51;8.30;99.90
36132;DHT22;22185;48.738;9.324;2022-09-29T02:17:56;8.20;99.90
36132;DHT22;22185;48.738;9.324;2022-09-29T02:19:58;8.20;99.90
36132;DHT22;22185;48.738;9.324;2022-09-29T02:22:00;8.20;99.90
36132;DHT22;22185;48.738;9.324;2022-09-29T02:24:02;8.20;99.90
36132;DHT22;22185;48.738;9.324;2022-09-29T02:26:03;8.30;99.90
36132;DHT22;22185;48.738;9.324;2022-09-29T02:28:05;8.20;99.90
36132;DHT22;22185;48.738;9.324;2022-09-29T02:30:08;8.20;99.90
36132;DHT22;22185;48.738;9.324;2022-09-29T02:32:09;8.20;99.90
36132;DHT22;22185;48.738;9.324;2022-09-29T02:34:12;8.20;99.90
36132;DHT22;22185;48.738;9.324;2022-09-29T02:36:17;8.30;99.90
36132;DHT22;22185;48.738;9.324;2022-09-29T02:38:29;8.20;99.90
36132;DHT22;22185;48.738;9.324;2022-09-29T02:42:39;8.20;99.90
36132;DHT22;22185;48.738;9.324;2022-09-29T02:46:55;8.30;99.90
36132;DHT22;22185;48.738;9.324;2022-09-29T02:49:05;8.30;99.90
36132;DHT22;22185;48.738;9.324;2022-09-29T02:51:12;8.20;99.90
36132;DHT22;22185;48.738;9.324;2022-09-29T02:53:31;8.20;99.90
36132;DHT22;22185;48.738;9.324;2022-09-29T02:55:37;8.20;99.90
36132;DHT22;22185;48.738;9.324;2022-09-29T03:00:05;8.20;99.90
36132;DHT22;22185;48.738;9.324;2022-09-29T03:02:11;8.20;99.90
36132;DHT22;22185;48.738;9.324;2022-09-29T03:04:16;8.20;99.90
36132;DHT22;22185;48.738;9.324;2022-09-29T03:06:18;8.20;99.90
36132;DHT22;22185;48.738;9.324;2022-09-29T03:08:21;8.20;99.90
36132;DHT22;22185;48.738;9.324;2022-09-29T03:10:23;8.20;99.90
36132;DHT22;22185;48.738;9.324;2022-09-29T03:12:30;8.20;99.90
36132;DHT22;22185;48.738;9.324;2022-09-29T03:14:32;8.20;99.90
36132;DHT22;22185;48.738;9.324;2022-09-29T03:16:34;8.20;99.90
36132;DHT22;22185;48.738;9.324;2022-09-29T03:18:36;8.10;99.90
36132;DHT22;22185;48.738;9.324;2022-09-29T03:20:38;8.10;99.90
36132;DHT22;22185;48.738;9.324;2022-09-29T03:22:39;8.10;99.90
36132;DHT22;22185;48.738;9.324;2022-09-29T03:24:41;8.00;99.90
36132;DHT22;22185;48.738;9.324;2022-09-29T03:26:43;8.00;99.90
36132;DHT22;22185;48.738;9.324;2022-09-29T03:28:44;7.90;99.90
36132;DHT22;22185;48.738;9.324;2022-09-29T03:30:46;7.90;99.90
36132;DHT22;22185;48.738;9.324;2022-09-29T03:32:47;7.80;99.90
36132;DHT22;22185;48.738;9.324;2022-09-29T03:34:49;7.70;99.90
36132;DHT22;22185;48.738;9.324;2022-09-29T03:36:51;7.70;99.90
36132;DHT22;22185;48.738;9.324;2022-09-29T03:38:52;7.60;99.90
36132;DHT22;22185;48.738;9.324;2022-09-29T03:40:54;7.60;99.90
36132;DHT22;22185;48.738;9.324;2022-09-29T03:42:56;7.50;99.90
36132;DHT22;22185;48.738;9.324;2022-09-29T03:44:57;7.50;99.90
36132;DHT22;22185;48.738;9.324;2022-09-29T03:46:59;7.50;99.90
36132;DHT22;22185;48.738;9.324;2022-09-29T03:49:01;7.50;99.90
36132;DHT22;22185;48.738;9.324;2022-09-29T03:51:02;7.40;99.90
36132;DHT22;22185;48.738;9.324;2022-09-29T03:53:04;7.40;99.90
36132;DHT22;22185;48.738;9.324;2022-09-29T03:55:06;7.30;99.90
36132;DHT22;22185;48.738;9.324;2022-09-29T03:57:08;7.30;99.90
36132;DHT22;22185;48.738;9.324;2022-09-29T03:59:10;7.30;99.90
36132;DHT22;22185;48.738;9.324;2022-09-29T04:01:12;7.30;99.90
36132;DHT22;22185;48.738;9.324;2022-09-29T04:03:14;7.20;99.90
36132;DHT22;22185;48.738;9.324;2022-09-29T04:05:16;7.10;99.90
36132;DHT22;22185;48.738;9.324;2022-09-29T04:07:18;7.10;99.90
36132;DHT22;22185;48.738;9.324;2022-09-29T04:09:20;7.20;99.90
36132;DHT22;22185;48.738;9.324;2022-09-29T04:11:22;7.20;99.90
36132;DHT22;22185;48.738;9.324;2022-09-29T04:13:23;7.10;99.90
36132;DHT22;22185;48.738;9.324;2022-09-29T04:15:25;7.00;99.90
36132;DHT22;22185;48.738;9.324;2022-09-29T04:17:26;7.00;99.90
36132;DHT22;22185;48.738;9.324;2022-09-29T04:19:28;7.00;99.90
36132;DHT22;22185;48.738;9.324;2022-09-29T04:21:30;7.00;99.90
36132;DHT22;22185;48.738;9.324;2022-09-29T04:23:31;7.00;99.90
36132;DHT22;22185;48.738;9.324;2022-09-29T04:25:33;7.00;99.90
36132;DHT22;22185;48.738;9.324;2022-09-29T04:27:35;7.00;99.90
36132;DHT22;22185;48.738;9.324;2022-09-29T04:29:36;7.00;99.90
36132;DHT22;22185;48.738;9.324;2022-09-29T04:31:38;6.90;99.90
36132;DHT22;22185;48.738;9.324;2022-09-29T04:33:40;7.00;99.90
36132;DHT22;22185;48.738;9.324;2022-09-29T04:35:41;7.00;99.90
36132;DHT22;22185;48.738;9.324;2022-09-29T04:37:43;6.90;99.90
36132;DHT22;22185;48.738;9.324;2022-09-29T04:39:45;6.90;99.90
36132;DHT22;22185;48.738;9.324;2022-09-29T04:41:47;6.90;99.90
36132;DHT22;22185;48.738;9.324;2022-09-29T04:43:48;6.90;99.90
36132;DHT22;22185;48.738;9.324;2022-09-29T04:45:50;6.90;99.90
36132;DHT22;22185;48.738;9.324;2022-09-29T04:47:51;6.90;99.90
36132;DHT22;22185;48.738;9.324;2022-09-29T04:49:53;6.90;99.90
36132;DHT22;22185;48.738;9.324;2022-09-29T04:51:55;6.90;99.90
36132;DHT22;22185;48.738;9.324;2022-09-29T04:53:57;6.90;99.90
36132;DHT22;22185;48.738;9.324;2022-09-29T04:56:03;7.00;99.90
36132;DHT22;22185;48.738;9.324;2022-09-29T04:58:04;7.00;99.90
36132;DHT22;22185;48.738;9.324;2022-09-29T05:00:07;7.00;99.90
36132;DHT22;22185;48.738;9.324;2022-09-29T05:02:09;6.90;99.90
36132;DHT22;22185;48.738;9.324;2022-09-29T05:04:10;6.90;99.90
36132;DHT22;22185;48.738;9.324;2022-09-29T05:06:14;6.90;99.90
36132;DHT22;22185;48.738;9.324;2022-09-29T05:08:16;6.90;99.90
36132;DHT22;22185;48.738;9.324;2022-09-29T05:10:17;6.90;99.90
36132;DHT22;22185;48.738;9.324;2022-09-29T05:12:19;6.90;99.90
36132;DHT22;22185;48.738;9.324;2022-09-29T05:14:21;6.90;99.90
36132;DHT22;22185;48.738;9.324;2022-09-29T05:16:23;6.90;99.90
36132;DHT22;22185;48.738;9.324;2022-09-29T05:18:24;6.90;99.90
36132;DHT22;22185;48.738;9.324;2022-09-29T05:20:26;6.90;99.90
36132;DHT22;22185;48.738;9.324;2022-09-29T05:22:38;6.80;99.90
36132;DHT22;22185;48.738;9.324;2022-09-29T05:24:40;6.80;99.90
36132;DHT22;22185;48.738;9.324;2022-09-29T05:26:42;6.80;99.90
36132;DHT22;22185;48.738;9.324;2022-09-29T05:28:44;6.90;99.90
36132;DHT22;22185;48.738;9.324;2022-09-29T05:30:46;6.90;99.90
36132;DHT22;22185;48.738;9.324;2022-09-29T05:32:47;7.00;99.90
36132;DHT22;22185;48.738;9.324;2022-09-29T05:34:50;6.90;99.90
36132;DHT22;22185;48.738;9.324;2022-09-29T05:36:51;6.90;99.90
36132;DHT22;22185;48.738;9.324;2022-09-29T05:38:53;6.90;99.90
36132;DHT22;22185;48.738;9.324;2022-09-29T05:40:54;7.00;99.90
36132;DHT22;22185;48.738;9.324;2022-09-29T05:42:57;6.90;99.90
36132;DHT22;22185;48.738;9.324;2022-09-29T05:44:58;6.80;99.90
36132;DHT22;22185;48.738;9.324;2022-09-29T05:47:00;6.90;99.90
36132;DHT22;22185;48.738;9.324;2022-09-29T05:49:02;6.80;99.90
36132;DHT22;22185;48.738;9.324;2022-09-29T05:51:08;6.90;99.90
36132;DHT22;22185;48.738;9.324;2022-09-29T05:53:10;6.90;99.90
36132;DHT22;22185;48.738;9.324;2022-09-29T05:55:11;6.90;99.90
36132;DHT22;22185;48.738;9.324;2022-09-29T05:57:13;7.00;99.90
36132;DHT22;22185;48.738;9.324;2022-09-29T05:59:15;7.10;99.90
36132;DHT22;22185;48.738;9.324;2022-09-29T06:01:18;7.10;99.90
36132;DHT22;22185;48.738;9.324;2022-09-29T06:03:20;7.20;99.90
36132;DHT22;22185;48.738;9.324;2022-09-29T06:05:21;7.10;99.90
36132;DHT22;22185;48.738;9.324;2022-09-29T06:07:23;7.20;99.90
36132;DHT22;22185;48.738;9.324;2022-09-29T06:09:25;7.20;99.90
36132;DHT22;22185;48.738;9.324;2022-09-29T06:11:27;7.30;99.90
36132;DHT22;22185;48.738;9.324;2022-09-29T06:13:29;7.30;99.90
36132;DHT22;22185;48.738;9.324;2022-09-29T06:15:31;7.30;99.90
36132;DHT22;22185;48.738;9.324;2022-09-29T06:17:32;7.40;99.90
36132;DHT22;22185;48.738;9.324;2022-09-29T06:19:35;7.40;99.90
36132;DHT22;22185;48.738;9.324;2022-09-29T06:21:36;7.50;99.90
36132;DHT22;22185;48.738;9.324;2022-09-29T06:23:40;7.50;99.90
36132;DHT22;22185;48.738;9.324;2022-09-29T06:25:42;7.50;99.90
36132;DHT22;22185;48.738;9.324;2022-09-29T06:27:43;7.50;99.90
36132;DHT22;22185;48.738;9.324;2022-09-29T06:29:45;7.60;99.90
36132;DHT22;22185;48.738;9.324;2022-09-29T06:31:46;7.70;99.90
36132;DHT22;22185;48.738;9.324;2022-09-29T06:33:49;7.80;99.90
36132;DHT22;22185;48.738;9.324;2022-09-29T06:35:51;7.90;99.90
36132;DHT22;22185;48.738;9.324;2022-09-29T06:38:11;7.90;99.90
36132;DHT22;22185;48.738;9.324;2022-09-29T06:40:13;8.00;99.90
36132;DHT22;22185;48.738;9.324;2022-09-29T06:42:14;8.10;99.90
36132;DHT22;22185;48.738;9.324;2022-09-29T06:44:16;8.20;99.90
36132;DHT22;22185;48.738;9.324;2022-09-29T06:46:18;8.30;99.90
36132;DHT22;22185;48.738;9.324;2022-09-29T06:48:20;8.30;99.90
36132;DHT22;22185;48.738;9.324;2022-09-29T06:50:22;8.20;99.90
36132;DHT22;22185;48.738;9.324;2022-09-29T06:52:23;8.10;99.90
36132;DHT22;22185;48.738;9.324;2022-09-29T06:54:30;8.20;99.90
36132;DHT22;22185;48.738;9.324;2022-09-29T06:56:32;8.20;99.90
36132;DHT22;22185;48.738;9.324;2022-09-29T06:58:33;8.30;99.90
36132;DHT22;22185;48.738;9.324;2022-09-29T07:00:36;8.40;99.90
36132;DHT22;22185;48.738;9.324;2022-09-29T07:02:38;8.40;99.90
36132;DHT22;22185;48.738;9.324;2022-09-29T07:04:39;8.40;99.90
36132;DHT22;22185;48.738;9.324;2022-09-29T07:06:41;8.50;99.90
36132;DHT22;22185;48.738;9.324;2022-09-29T07:08:43;8.50;99.90
36132;DHT22;22185;48.738;9.324;2022-09-29T07:10:45;8.60;99.90
36132;DHT22;22185;48.738;9.324;2022-09-29T07:12:46;8.60;99.90
36132;DHT22;22185;48.738;9.324;2022-09-29T07:14:48;8.70;99.90
36132;DHT22;22185;48.738;9.324;2022-09-29T07:16:50;8.80;99.90
36132;DHT22;22185;48.738;9.324;2022-09-29T07:18:51;8.90;99.90
36132;DHT22;22185;48.738;9.324;2022-09-29T07:20:55;8.90;99.90
36132;DHT22;22185;48.738;9.324;2022-09-29T07:22:57;8.90;99.90
36132;DHT22;22185;48.738;9.324;2022-09-29T07:24:59;8.90;99.90
36132;DHT22;22185;48.738;9.324;2022-09-29T07:27:00;9.00;99.90
36132;DHT22;22185;48.738;9.324;2022-09-29T07:29:02;9.10;99.90
36132;DHT22;22185;48.738;9.324;2022-09-29T07:31:07;9.10;99.90
36132;DHT22;22185;48.738;9.324;2022-09-29T07:33:15;9.10;99.90
36132;DHT22;22185;48.738;9.324;2022-09-29T07:35:20;9.20;99.90
36132;DHT22;22185;48.738;9.324;2022-09-29T07:37:21;9.30;99.90
36132;DHT22;22185;48.738;9.324;2022-09-29T07:39:23;9.30;99.90
36132;DHT22;22185;48.738;9.324;2022-09-29T07:41:24;9.40;99.90
36132;DHT22;22185;48.738;9.324;2022-09-29T07:43:26;9.60;99.90
36132;DHT22;22185;48.738;9.324;2022-09-29T07:45:28;9.60;99.90
36132;DHT22;22185;48.738;9.324;2022-09-29T07:47:29;9.60;99.90
36132;DHT22;22185;48.738;9.324;2022-09-29T07:49:31;9.50;99.90
36132;DHT22;22185;48.738;9.324;2022-09-29T07:51:33;9.50;99.90
36132;DHT22;22185;48.738;9.324;2022-09-29T07:53:34;9.60;99.90
36132;DHT22;22185;48.738;9.324;2022-09-29T07:55:39;9.60;99.90
36132;DHT22;22185;48.738;9.324;2022-09-29T07:57:41;9.60;99.90
36132;DHT22;22185;48.738;9.324;2022-09-29T07:59:42;9.70;99.90
36132;DHT22;22185;48.738;9.324;2022-09-29T08:01:52;9.80;99.90
36132;DHT22;22185;48.738;9.324;2022-09-29T08:03:54;9.70;99.90
36132;DHT22;22185;48.738;9.324;2022-09-29T08:05:56;9.80;99.90
36132;DHT22;22185;48.738;9.324;2022-09-29T08:07:58;9.80;99.90
36132;DHT22;22185;48.738;9.324;2022-09-29T08:10:01;9.80;99.90
36132;DHT22;22185;48.738;9.324;2022-09-29T08:12:16;9.80;99.90
36132;DHT22;22185;48.738;9.324;2022-09-29T08:14:19;9.90;99.90
36132;DHT22;22185;48.738;9.324;2022-09-29T08:16:21;9.80;99.90
36132;DHT22;22185;48.738;9.324;2022-09-29T08:18:24;9.80;99.90
36132;DHT22;22185;48.738;9.324;2022-09-29T08:20:25;9.90;99.90
36132;DHT22;22185;48.738;9.324;2022-09-29T08:22:27;10.00;99.90
36132;DHT22;22185;48.738;9.324;2022-09-29T08:24:29;10.10;99.90
36132;DHT22;22185;48.738;9.324;2022-09-29T08:26:32;10.10;99.90
36132;DHT22;22185;48.738;9.324;2022-09-29T08:28:44;10.30;99.90
36132;DHT22;22185;48.738;9.324;2022-09-29T08:30:46;10.30;99.90
36132;DHT22;22185;48.738;9.324;2022-09-29T08:32:51;10.40;99.90
36132;DHT22;22185;48.738;9.324;2022-09-29T08:34:52;10.40;99.90
36132;DHT22;22185;48.738;9.324;2022-09-29T08:36:54;10.50;99.90
36132;DHT22;22185;48.738;9.324;2022-09-29T08:38:56;10.50;99.90
36132;DHT22;22185;48.738;9.324;2022-09-29T08:41:01;10.70;99.90
36132;DHT22;22185;48.738;9.324;2022-09-29T08:45:06;10.80;99.90
36132;DHT22;22185;48.738;9.324;2022-09-29T08:47:18;10.80;99.90
36132;DHT22;22185;48.738;9.324;2022-09-29T08:49:23;10.80;99.90
36132;DHT22;22185;48.738;9.324;2022-09-29T08:51:42;10.90;99.90
36132;DHT22;22185;48.738;9.324;2022-09-29T08:53:45;10.90;99.90
36132;DHT22;22185;48.738;9.324;2022-09-29T08:56:06;11.00;99.90
36132;DHT22;22185;48.738;9.324;2022-09-29T08:58:10;11.30;99.90
36132;DHT22;22185;48.738;9.324;2022-09-29T09:00:14;11.40;99.90
36132;DHT22;22185;48.738;9.324;2022-09-29T09:04:42;11.50;99.90
36132;DHT22;22185;48.738;9.324;2022-09-29T09:11:11;11.70;99.90
36132;DHT22;22185;48.738;9.324;2022-09-29T09:22:22;12.20;99.90
36132;DHT22;22185;48.738;9.324;2022-09-29T09:24:27;12.30;99.90
36132;DHT22;22185;48.738;9.324;2022-09-29T09:26:44;12.20;99.90
36132;DHT22;22185;48.738;9.324;2022-09-29T09:28:47;12.10;99.90
36132;DHT22;22185;48.738;9.324;2022-09-29T09:30:58;12.00;99.90
36132;DHT22;22185;48.738;9.324;2022-09-29T09:33:01;11.90;99.90
36132;DHT22;22185;48.738;9.324;2022-09-29T09:35:07;11.90;99.90
36132;DHT22;22185;48.738;9.324;2022-09-29T09:37:31;12.00;99.90
36132;DHT22;22185;48.738;9.324;2022-09-29T09:39:34;12.00;99.90
36132;DHT22;22185;48.738;9.324;2022-09-29T09:41:36;11.90;99.90
36132;DHT22;22185;48.738;9.324;2022-09-29T09:43:41;12.00;99.90
36132;DHT22;22185;48.738;9.324;2022-09-29T09:45:52;12.00;99.90
36132;DHT22;22185;48.738;9.324;2022-09-29T09:50:04;12.00;99.90
36132;DHT22;22185;48.738;9.324;2022-09-29T09:52:13;12.10;99.90
36132;DHT22;22185;48.738;9.324;2022-09-29T09:54:35;12.30;99.90
36132;DHT22;22185;48.738;9.324;2022-09-29T09:57:23;12.40;99.90
36132;DHT22;22185;48.738;9.324;2022-09-29T09:59:10;12.50;99.90
36132;DHT22;22185;48.738;9.324;2022-09-29T10:01:14;12.50;99.90
36132;DHT22;22185;48.738;9.324;2022-09-29T10:03:16;12.50;99.90
36132;DHT22;22185;48.738;9.324;2022-09-29T10:05:22;12.60;99.90
36132;DHT22;22185;48.738;9.324;2022-09-29T10:07:27;12.70;99.90
36132;DHT22;22185;48.738;9.324;2022-09-29T10:09:29;12.90;99.90
36132;DHT22;22185;48.738;9.324;2022-09-29T10:11:31;13.00;99.90
36132;DHT22;22185;48.738;9.324;2022-09-29T10:13:33;12.90;99.90
36132;DHT22;22185;48.738;9.324;2022-09-29T10:15:39;12.70;99.90
36132;DHT22;22185;48.738;9.324;2022-09-29T10:17:44;12.80;99.90
36132;DHT22;22185;48.738;9.324;2022-09-29T10:20:00;13.10;99.90
36132;DHT22;22185;48.738;9.324;2022-09-29T10:22:12;13.40;99.90
36132;DHT22;22185;48.738;9.324;2022-09-29T10:24:21;13.40;99.90
36132;DHT22;22185;48.738;9.324;2022-09-29T10:28:29;13.40;99.90
36132;DHT22;22185;48.738;9.324;2022-09-29T10:30:37;12.90;99.90
36132;DHT22;22185;48.738;9.324;2022-09-29T10:32:38;12.90;99.90
36132;DHT22;22185;48.738;9.324;2022-09-29T10:34:41;12.90;99.90
36132;DHT22;22185;48.738;9.324;2022-09-29T10:39:00;13.00;99.90
36132;DHT22;22185;48.738;9.324;2022-09-29T10:41:05;13.20;99.90
36132;DHT22;22185;48.738;9.324;2022-09-29T10:43:21;13.30;99.90
36132;DHT22;22185;48.738;9.324;2022-09-29T10:45:27;13.20;99.90
36132;DHT22;22185;48.738;9.324;2022-09-29T10:47:32;13.10;99.90
36132;DHT22;22185;48.738;9.324;2022-09-29T10:49:34;13.20;99.90
36132;DHT22;22185;48.738;9.324;2022-09-29T10:51:36;13.40;99.90
36132;DHT22;22185;48.738;9.324;2022-09-29T10:53:38;13.60;99.90
36132;DHT22;22185;48.738;9.324;2022-09-29T10:55:47;13.70;99.90
36132;DHT22;22185;48.738;9.324;2022-09-29T10:57:51;14.00;99.90
36132;DHT22;22185;48.738;9.324;2022-09-29T10:59:54;14.10;99.90
36132;DHT22;22185;48.738;9.324;2022-09-29T11:01:58;14.10;99.90
36132;DHT22;22185;48.738;9.324;2022-09-29T11:04:05;14.00;99.90
36132;DHT22;22185;48.738;9.324;2022-09-29T11:06:10;14.00;99.90
36132;DHT22;22185;48.738;9.324;2022-09-29T11:08:13;14.00;99.90
36132;DHT22;22185;48.738;9.324;2022-09-29T11:12:46;13.80;99.90
36132;DHT22;22185;48.738;9.324;2022-09-29T11:14:49;13.50;99.90
36132;DHT22;22185;48.738;9.324;2022-09-29T11:16:52;13.60;99.90
36132;DHT22;22185;48.738;9.324;2022-09-29T11:18:55;13.70;99.90
36132;DHT22;22185;48.738;9.324;2022-09-29T11:23:42;14.90;99.90
36132;DHT22;22185;48.738;9.324;2022-09-29T11:37:08;15.60;99.90
36132;DHT22;22185;48.738;9.324;2022-09-29T11:43:45;16.10;99.90
36132;DHT22;22185;48.738;9.324;2022-09-29T11:45:52;16.70;99.90
36132;DHT22;22185;48.738;9.324;2022-09-29T11:48:02;16.30;99.90
36132;DHT22;22185;48.738;9.324;2022-09-29T11:50:11;15.50;99.90
36132;DHT22;22185;48.738;9.324;2022-09-29T11:54:33;16.70;99.90
36132;DHT22;22185;48.738;9.324;2022-09-29T11:56:49;17.80;99.90
36132;DHT22;22185;48.738;9.324;2022-09-29T12:05:37;17.80;99.90
36132;DHT22;22185;48.738;9.324;2022-09-29T12:09:57;17.80;99.90
36132;DHT22;22185;48.738;9.324;2022-09-29T12:14:27;17.40;99.90
36132;DHT22;22185;48.738;9.324;2022-09-29T12:16:43;19.00;99.90
36132;DHT22;22185;48.738;9.324;2022-09-29T12:18:55;19.70;99.90
36132;DHT22;22185;48.738;9.324;2022-09-29T12:20:58;19.80;99.90
36132;DHT22;22185;48.738;9.324;2022-09-29T12:23:02;20.30;99.90
36132;DHT22;22185;48.738;9.324;2022-09-29T12:25:09;21.20;99.90
36132;DHT22;22185;48.738;9.324;2022-09-29T12:33:32;19.90;99.90
36132;DHT22;22185;48.738;9.324;2022-09-29T12:35:39;19.60;99.90
36132;DHT22;22185;48.738;9.324;2022-09-29T12:44:26;17.90;99.90
36132;DHT22;22185;48.738;9.324;2022-09-29T12:46:31;18.80;99.90
36132;DHT22;22185;48.738;9.324;2022-09-29T12:51:00;19.50;99.90
36132;DHT22;22185;48.738;9.324;2022-09-29T12:53:11;17.80;99.90
36132;DHT22;22185;48.738;9.324;2022-09-29T12:55:40;17.90;99.90
36132;DHT22;22185;48.738;9.324;2022-09-29T12:57:38;18.50;99.90
36132;DHT22;22185;48.738;9.324;2022-09-29T13:01:46;19.10;99.90
36132;DHT22;22185;48.738;9.324;2022-09-29T13:04:03;18.10;99.90
36132;DHT22;22185;48.738;9.324;2022-09-29T13:15:12;18.20;99.90
36132;DHT22;22185;48.738;9.324;2022-09-29T13:17:20;18.10;99.90
36132;DHT22;22185;48.738;9.324;2022-09-29T13:19:42;17.30;99.90
36132;DHT22;22185;48.738;9.324;2022-09-29T13:30:34;16.90;99.90
36132;DHT22;22185;48.738;9.324;2022-09-29T13:32:38;16.90;99.90
36132;DHT22;22185;48.738;9.324;2022-09-29T13:34:45;16.90;99.90
36132;DHT22;22185;48.738;9.324;2022-09-29T13:36:48;16.60;99.90
36132;DHT22;22185;48.738;9.324;2022-09-29T13:38:54;16.50;99.90
36132;DHT22;22185;48.738;9.324;2022-09-29T13:41:09;16.20;99.90
36132;DHT22;22185;48.738;9.324;2022-09-29T13:43:15;16.20;99.90
36132;DHT22;22185;48.738;9.324;2022-09-29T13:47:37;16.10;99.90
36132;DHT22;22185;48.738;9.324;2022-09-29T13:49:45;16.00;99.90
36132;DHT22;22185;48.738;9.324;2022-09-29T13:51:48;15.90;99.90
36132;DHT22;22185;48.738;9.324;2022-09-29T13:56:13;16.00;99.90
36132;DHT22;22185;48.738;9.324;2022-09-29T14:00:22;16.00;99.90
36132;DHT22;22185;48.738;9.324;2022-09-29T14:06:43;15.80;99.90
36132;DHT22;22185;48.738;9.324;2022-09-29T14:08:48;15.60;99.90
36132;DHT22;22185;48.738;9.324;2022-09-29T14:15:17;15.60;99.90
36132;DHT22;22185;48.738;9.324;2022-09-29T14:17:20;15.70;99.90
36132;DHT22;22185;48.738;9.324;2022-09-29T14:21:44;16.00;99.90
36132;DHT22;22185;48.738;9.324;2022-09-29T14:23:48;15.70;99.90
36132;DHT22;22185;48.738;9.324;2022-09-29T14:25:51;15.70;99.90
36132;DHT22;22185;48.738;9.324;2022-09-29T14:32:09;15.30;99.90
36132;DHT22;22185;48.738;9.324;2022-09-29T14:34:15;15.10;99.90
36132;DHT22;22185;48.738;9.324;2022-09-29T14:36:19;15.00;99.90
36132;DHT22;22185;48.738;9.324;2022-09-29T14:38:23;15.00;99.90
36132;DHT22;22185;48.738;9.324;2022-09-29T14:40:26;14.60;99.90
36132;DHT22;22185;48.738;9.324;2022-09-29T14:42:31;14.50;99.90
36132;DHT22;22185;48.738;9.324;2022-09-29T14:44:35;14.50;99.90
36132;DHT22;22185;48.738;9.324;2022-09-29T15:00:36;14.50;99.90
36132;DHT22;22185;48.738;9.324;2022-09-29T15:02:45;14.40;99.90
36132;DHT22;22185;48.738;9.324;2022-09-29T15:05:10;14.60;99.90
36132;DHT22;22185;48.738;9.324;2022-09-29T15:07:12;14.60;99.90
36132;DHT22;22185;48.738;9.324;2022-09-29T15:09:16;14.60;99.90
36132;DHT22;22185;48.738;9.324;2022-09-29T15:13:27;14.60;99.90
36132;DHT22;22185;48.738;9.324;2022-09-29T15:15:34;14.50;99.90
36132;DHT22;22185;48.738;9.324;2022-09-29T15:17:43;14.50;99.90
36132;DHT22;22185;48.738;9.324;2022-09-29T15:19:52;14.50;99.90
36132;DHT22;22185;48.738;9.324;2022-09-29T15:26:24;14.60;99.90
36132;DHT22;22185;48.738;9.324;2022-09-29T15:28:34;14.60;99.90
36132;DHT22;22185;48.738;9.324;2022-09-29T15:30:38;14.60;99.90
36132;DHT22;22185;48.738;9.324;2022-09-29T15:32:40;14.50;99.90
36132;DHT22;22185;48.738;9.324;2022-09-29T15:34:41;14.50;99.90
36132;DHT22;22185;48.738;9.324;2022-09-29T15:36:44;14.50;99.90
36132;DHT22;22185;48.738;9.324;2022-09-29T15:38:51;14.50;99.90
36132;DHT22;22185;48.738;9.324;2022-09-29T15:40:53;14.50;99.90
36132;DHT22;22185;48.738;9.324;2022-09-29T15:42:55;14.40;99.90
36132;DHT22;22185;48.738;9.324;2022-09-29T15:44:58;14.40;99.90
36132;DHT22;22185;48.738;9.324;2022-09-29T15:47:00;14.40;99.90
36132;DHT22;22185;48.738;9.324;2022-09-29T15:51:16;14.30;99.90
36132;DHT22;22185;48.738;9.324;2022-09-29T15:53:19;14.20;99.90
36132;DHT22;22185;48.738;9.324;2022-09-29T15:55:21;14.20;99.90
36132;DHT22;22185;48.738;9.324;2022-09-29T15:57:31;14.10;99.90
36132;DHT22;22185;48.738;9.324;2022-09-29T15:59:47;14.10;99.90
36132;DHT22;22185;48.738;9.324;2022-09-29T16:01:50;14.10;99.90
36132;DHT22;22185;48.738;9.324;2022-09-29T16:03:54;14.10;99.90